Smartville, California
Current Conditions -  °F | °C
As of 5:58 PM on Friday 24 Oct 2014 (Local Time) from KBAB Reporting Station
Clear Clear  
Wind Chill: 72°   Ceiling: Unl
Heat Index: 72°   Visibility: 8mi
Dew Point: 51°   Wind: 3mph
Humidity: 48%   Direction: 130°SE
Pressure: 29.83"   Gusts: NA
Location:  39.21°N, 121.3°W
Report Text: KBAB 250058Z AUTO 13003KT 8SM CLR 22/11 A2983 RMK AO2 SLP177 T02220107 $
Loading
Personal Weather Stations






























Interactive Weather Map
Tropical Storm Tracking
New forecast layout! Learn more

10-Day Weather Forecast

Advertisements
Track Severe Weather on mobile